Time;durP1;ratioP1;P1;durP2;ratioP2;P2;SDS_P1;SDS_P2;PMS_P1;PMS_P2;Temp;Humidity;BMP_temperature;BMP_pressure;BME280_temperature;BME280_humidity;BME280_pressure;Samples;Min_cycle;Max_cycle;Signal;HPM_P1;HPM_P2
2022/04/22 00:01:42;;;;;;;9.10;7.53;;;6.70;99.90;;;;;;5111284;28;20119;-82
2022/04/22 00:04:07;;;;;;;9.03;7.37;;;6.70;99.90;;;;;;5111514;28;20489;-83
2022/04/22 00:06:33;;;;;;;9.13;7.40;;;6.80;99.90;;;;;;5111326;28;20135;-82
2022/04/22 00:08:59;;;;;;;10.67;7.50;;;6.80;99.90;;;;;;5111109;28;20038;-83
2022/04/22 00:11:31;;;;;;;9.17;7.63;;;6.80;99.90;;;;;;5100029;28;20108;-82
2022/04/22 00:13:59;;;;;;;9.90;8.00;;;6.80;99.90;;;;;;5090404;28;20046;-82
2022/04/22 00:16:26;;;;;;;9.13;7.47;;;6.70;99.90;;;;;;5106086;28;20020;-83
2022/04/22 00:18:51;;;;;;;9.67;8.03;;;6.60;99.90;;;;;;5102148;28;20028;-82
2022/04/22 00:21:17;;;;;;;10.63;7.90;;;6.60;99.90;;;;;;5087874;28;20028;-82
2022/04/22 00:23:43;;;;;;;9.10;7.47;;;6.60;99.90;;;;;;5089784;28;20024;-83
2022/04/22 00:26:08;;;;;;;13.43;8.07;;;6.60;99.90;;;;;;5106344;28;20020;-82
2022/04/22 00:28:34;;;;;;;15.13;7.97;;;6.60;99.90;;;;;;5090601;28;20405;-82
2022/04/22 00:31:00;;;;;;;8.90;7.37;;;6.50;99.90;;;;;;5090508;28;20038;-82
2022/04/22 00:33:25;;;;;;;9.00;7.57;;;6.60;99.90;;;;;;5090403;28;20059;-82
2022/04/22 00:35:51;;;;;;;8.97;6.93;;;6.60;99.90;;;;;;5090482;28;20048;-82
2022/04/22 00:38:16;;;;;;;16.83;7.77;;;6.60;99.90;;;;;;5090827;28;20516;-82
2022/04/22 00:40:42;;;;;;;9.47;7.70;;;6.60;99.90;;;;;;5090507;28;20025;-82
2022/04/22 00:43:19;;;;;;;12.30;7.60;;;6.50;99.90;;;;;;5090523;28;20032;-82
2022/04/22 00:45:46;;;;;;;10.60;7.87;;;6.40;99.90;;;;;;5090719;28;20049;-83
2022/04/22 00:48:12;;;;;;;11.00;7.83;;;6.40;99.90;;;;;;5090132;28;20035;-83
2022/04/22 00:50:39;;;;;;;9.07;7.93;;;6.40;99.90;;;;;;5090353;28;20062;-83
2022/04/22 00:53:06;;;;;;;11.63;7.63;;;6.30;99.90;;;;;;5090208;28;20032;-83
2022/04/22 00:55:32;;;;;;;9.53;7.70;;;6.20;99.90;;;;;;5090380;28;20067;-83
2022/04/22 00:57:59;;;;;;;9.53;7.47;;;6.30;99.90;;;;;;5091069;28;20389;-83
2022/04/22 01:00:25;;;;;;;12.93;7.43;;;6.20;99.90;;;;;;5090325;28;20024;-83
2022/04/22 01:02:51;;;;;;;11.07;7.20;;;6.20;99.90;;;;;;5090309;28;20032;-83
2022/04/22 01:10:46;;;;;;;10.40;7.30;;;6.00;99.90;;;;;;5097494;28;20034;-83
2022/04/22 01:13:12;;;;;;;9.77;7.70;;;6.00;99.90;;;;;;5101440;28;20293;-82
2022/04/22 01:15:38;;;;;;;8.80;7.70;;;5.90;99.90;;;;;;5090187;28;20103;-82
2022/04/22 01:18:04;;;;;;;10.97;7.37;;;5.90;99.90;;;;;;5090180;28;20028;-82
2022/04/22 01:20:31;;;;;;;10.47;8.67;;;5.90;99.90;;;;;;5090076;28;20043;-83
2022/04/22 01:22:56;;;;;;;10.20;8.50;;;5.80;99.90;;;;;;5072001;28;20115;-83
2022/04/22 01:25:22;;;;;;;11.30;8.17;;;5.70;99.90;;;;;;5092563;28;20115;-83
2022/04/22 01:27:51;;;;;;;13.33;8.00;;;5.70;99.90;;;;;;5093894;28;20024;-83
2022/04/22 01:30:23;;;;;;;10.27;8.30;;;5.70;99.90;;;;;;5093705;28;20130;-83
2022/04/22 01:32:50;;;;;;;12.40;8.60;;;5.60;99.90;;;;;;5094003;28;20067;-83
2022/04/22 01:35:20;;;;;;;10.00;8.50;;;5.50;99.90;;;;;;5093926;28;20443;-83
2022/04/22 01:37:46;;;;;;;9.47;8.00;;;5.40;99.90;;;;;;5093844;28;20024;-83
2022/04/22 01:40:12;;;;;;;11.30;8.87;;;5.30;99.90;;;;;;5099486;28;20354;-83
2022/04/22 01:42:38;;;;;;;15.50;10.10;;;5.20;99.90;;;;;;5095754;28;20050;-83
2022/04/22 01:45:05;;;;;;;10.30;8.77;;;5.10;99.90;;;;;;5114049;28;20024;-83
2022/04/22 01:47:31;;;;;;;11.63;9.27;;;5.10;99.90;;;;;;5082875;28;20115;-83
2022/04/22 01:49:57;;;;;;;10.97;9.30;;;5.10;99.90;;;;;;5093540;28;20024;-83
2022/04/22 01:52:23;;;;;;;11.03;9.23;;;5.00;99.90;;;;;;5093407;28;20024;-83
2022/04/22 01:54:52;;;;;;;13.70;9.87;;;5.00;99.90;;;;;;5089171;28;20050;-83
2022/04/22 01:57:18;;;;;;;9.83;8.70;;;5.00;99.90;;;;;;5113858;28;20016;-83
2022/04/22 01:59:46;;;;;;;11.10;9.00;;;4.90;99.90;;;;;;5095490;28;20020;-83
2022/04/22 02:02:12;;;;;;;12.80;9.73;;;4.90;99.90;;;;;;5113774;28;20031;-83
2022/04/22 02:04:38;;;;;;;10.07;8.90;;;4.90;99.90;;;;;;5113565;28;20024;-83
2022/04/22 02:07:04;;;;;;;12.37;9.50;;;4.90;99.90;;;;;;5095271;28;20031;-83
2022/04/22 02:09:29;;;;;;;11.57;9.70;;;4.90;99.90;;;;;;5113109;28;20114;-83
2022/04/22 02:11:56;;;;;;;13.10;9.47;;;4.80;99.90;;;;;;5113337;28;20153;-83
2022/04/22 02:14:22;;;;;;;14.50;9.30;;;4.80;99.90;;;;;;5094889;28;20384;-83
2022/04/22 02:16:48;;;;;;;14.87;10.27;;;4.80;99.90;;;;;;5113497;28;20027;-83
2022/04/22 02:19:14;;;;;;;18.30;10.57;;;4.70;99.90;;;;;;5113587;28;20087;-83
2022/04/22 02:21:40;;;;;;;14.30;10.23;;;4.70;99.90;;;;;;5109877;28;20028;-83
2022/04/22 02:24:06;;;;;;;12.40;9.07;;;4.60;99.90;;;;;;5093035;28;20047;-83
2022/04/22 02:28:31;;;;;;;12.93;9.70;;;4.60;99.90;;;;;;5106720;28;20028;-83
2022/04/22 02:29:18;;;;;;;13.43;9.13;;;4.50;99.90;;;;;;5113083;28;20051;-83
2022/04/22 02:31:43;;;;;;;13.00;10.20;;;4.50;99.90;;;;;;5113131;28;20422;-83
2022/04/22 02:34:09;;;;;;;13.10;10.23;;;4.40;99.90;;;;;;5113193;28;20020;-83
2022/04/22 02:36:35;;;;;;;16.47;10.60;;;4.40;99.90;;;;;;5097333;28;20028;-83
2022/04/22 02:39:00;;;;;;;12.27;10.33;;;4.40;99.90;;;;;;5092558;28;20409;-83
2022/04/22 02:47:08;;;;;;;15.70;10.17;;;4.20;99.90;;;;;;5092457;28;20030;-83
2022/04/22 02:49:33;;;;;;;14.13;9.97;;;4.20;99.90;;;;;;5092174;28;20020;-82
2022/04/22 02:51:59;;;;;;;17.00;11.30;;;4.20;99.90;;;;;;5112468;28;20031;-83
2022/04/22 02:54:25;;;;;;;16.50;11.90;;;4.10;99.90;;;;;;5100814;28;20121;-83
2022/04/22 02:56:51;;;;;;;16.20;10.80;;;4.10;99.90;;;;;;5092218;28;20354;-83
2022/04/22 02:59:20;;;;;;;21.53;11.27;;;4.10;99.90;;;;;;5092421;28;20473;-83
2022/04/22 03:01:45;;;;;;;14.67;10.57;;;4.00;99.90;;;;;;5091953;28;20039;-83
2022/04/22 03:04:11;;;;;;;19.17;11.27;;;4.00;99.90;;;;;;5073897;28;20047;-83
2022/04/22 03:06:37;;;;;;;18.30;11.47;;;4.00;99.90;;;;;;5073801;28;20070;-83
2022/04/22 03:09:03;;;;;;;16.37;11.23;;;4.00;99.90;;;;;;5092458;28;20078;-83
2022/04/22 03:11:29;;;;;;;19.00;10.63;;;3.90;99.90;;;;;;5091786;28;20477;-83
2022/04/22 03:13:54;;;;;;;16.27;11.30;;;3.90;99.90;;;;;;5092014;28;20023;-83
2022/04/22 03:16:24;;;;;;;16.83;11.40;;;3.90;99.90;;;;;;5091944;28;20453;-83
2022/04/22 03:18:50;;;;;;;20.87;11.07;;;3.90;99.90;;;;;;5091971;28;20055;-83
2022/04/22 03:21:16;;;;;;;16.30;10.50;;;3.80;99.90;;;;;;5107641;28;20123;-83
2022/04/22 03:23:41;;;;;;;17.53;10.97;;;3.80;99.90;;;;;;5091890;28;20016;-83
2022/04/22 03:26:07;;;;;;;14.53;10.83;;;3.80;99.90;;;;;;5091601;28;20031;-83
2022/04/22 03:28:33;;;;;;;18.63;10.43;;;3.70;99.90;;;;;;5073345;28;20040;-83
2022/04/22 03:30:59;;;;;;;16.77;10.10;;;3.70;99.90;;;;;;5091909;28;20126;-83
2022/04/22 03:33:24;;;;;;;13.13;11.17;;;3.60;99.90;;;;;;5091844;28;20024;-83
2022/04/22 03:35:50;;;;;;;15.30;11.13;;;3.60;99.90;;;;;;5084068;28;20043;-83
2022/04/22 03:38:20;;;;;;;15.90;11.53;;;3.60;99.90;;;;;;5111934;28;20502;-83
2022/04/22 03:40:55;;;;;;;17.57;11.67;;;3.60;99.90;;;;;;5111824;28;20035;-83
2022/04/22 03:43:22;;;;;;;13.77;11.02;;;3.50;99.90;;;;;;5111810;28;20520;-83
2022/04/22 03:45:48;;;;;;;16.13;11.83;;;3.50;99.90;;;;;;5111444;28;20028;-82
2022/04/22 03:48:14;;;;;;;14.80;10.83;;;3.50;99.90;;;;;;5095592;28;20055;-82
2022/04/22 03:50:41;;;;;;;17.70;11.07;;;3.50;99.90;;;;;;5091023;28;20077;-82
2022/04/22 03:53:11;;;;;;;14.77;11.57;;;3.50;99.90;;;;;;5091053;28;20028;-82
2022/04/22 03:55:41;;;;;;;14.53;11.17;;;3.40;99.90;;;;;;5106744;28;20422;-82
2022/04/22 03:58:11;;;;;;;18.97;11.33;;;3.40;99.90;;;;;;5091191;28;20040;-82
2022/04/22 04:00:40;;;;;;;17.77;11.57;;;3.40;99.90;;;;;;5090937;28;20380;-82
2022/04/22 04:03:10;;;;;;;16.20;11.80;;;3.30;99.90;;;;;;5091343;28;20135;-82
2022/04/22 04:05:39;;;;;;;17.47;11.50;;;3.30;99.90;;;;;;5072458;28;20070;-82
2022/04/22 04:08:05;;;;;;;15.10;12.00;;;3.30;99.90;;;;;;5091573;28;20483;-82
2022/04/22 04:16:00;;;;;;;19.53;11.97;;;3.30;99.90;;;;;;5079226;28;20534;-82
2022/04/22 04:18:31;;;;;;;16.73;11.93;;;3.30;99.90;;;;;;5086896;28;20032;-82
2022/04/22 04:23:42;;;;;;;22.58;12.65;;;3.20;99.90;;;;;;5089649;28;20190;-82
2022/04/22 04:26:08;;;;;;;22.67;12.27;;;3.20;99.90;;;;;;5088270;28;20032;-82
2022/04/22 04:28:35;;;;;;;18.63;11.87;;;3.20;99.90;;;;;;5089188;28;20042;-82
2022/04/22 04:31:01;;;;;;;19.60;12.63;;;3.20;99.90;;;;;;5089383;28;20086;-82
2022/04/22 04:33:28;;;;;;;18.83;12.60;;;3.20;99.90;;;;;;5072684;28;20049;-82
2022/04/22 04:35:54;;;;;;;14.90;12.33;;;3.30;99.90;;;;;;5060207;28;20042;-82
2022/04/22 04:38:20;;;;;;;16.13;12.07;;;3.30;99.90;;;;;;5083308;28;20024;-82
2022/04/22 04:40:46;;;;;;;16.50;12.23;;;3.30;99.90;;;;;;5083862;28;20373;-82
2022/04/22 04:43:12;;;;;;;16.53;12.20;;;3.30;99.90;;;;;;5085786;28;20035;-82
2022/04/22 04:45:37;;;;;;;19.57;12.83;;;3.30;99.90;;;;;;5085010;28;20032;-82
2022/04/22 04:48:04;;;;;;;16.93;13.90;;;3.40;99.90;;;;;;5068121;28;20081;-80
2022/04/22 04:50:31;;;;;;;23.47;14.33;;;3.50;99.90;;;;;;5089282;28;20039;-80
2022/04/22 04:52:56;;;;;;;20.97;13.73;;;3.60;99.90;;;;;;5088973;28;20051;-81
2022/04/22 04:55:22;;;;;;;26.70;15.07;;;3.60;99.90;;;;;;5074685;28;20439;-81
2022/04/22 04:57:48;;;;;;;22.37;13.77;;;3.70;99.90;;;;;;5078576;28;20070;-75
2022/04/22 05:00:14;;;;;;;22.50;13.90;;;3.80;99.90;;;;;;5075386;28;20070;-75
2022/04/22 05:02:40;;;;;;;20.07;13.17;;;4.00;99.90;;;;;;5076822;28;20028;-75
2022/04/22 05:05:06;;;;;;;20.17;13.07;;;4.00;99.90;;;;;;5077241;28;20078;-76
2022/04/22 05:07:33;;;;;;;20.30;14.00;;;4.10;99.90;;;;;;5058723;28;20397;-75
2022/04/22 05:09:59;;;;;;;16.03;12.67;;;4.20;99.90;;;;;;5058670;28;20460;-76
2022/04/22 05:12:24;;;;;;;17.73;12.33;;;4.30;99.90;;;;;;5076718;28;20032;-76
2022/04/22 05:14:50;;;;;;;18.50;12.67;;;4.40;99.90;;;;;;5058695;28;20018;-75
2022/04/22 05:17:16;;;;;;;22.17;11.77;;;4.50;99.90;;;;;;5076755;28;20017;-76
2022/04/22 05:19:41;;;;;;;13.30;10.63;;;4.50;99.90;;;;;;5076677;28;20016;-76
2022/04/22 05:22:07;;;;;;;19.27;14.83;;;4.60;99.90;;;;;;5076862;28;20514;-76
2022/04/22 05:24:34;;;;;;;20.00;14.77;;;4.70;99.90;;;;;;5076509;28;20028;-76
2022/04/22 05:27:01;;;;;;;19.63;13.77;;;5.00;99.90;;;;;;5076551;28;20108;-75
2022/04/22 05:34:54;;;;;;;23.63;15.17;;;5.50;99.90;;;;;;5076362;28;20169;-75
2022/04/22 05:37:20;;;;;;;18.27;14.40;;;5.60;99.90;;;;;;5076243;28;20103;-75
2022/04/22 05:39:47;;;;;;;23.93;16.13;;;5.60;99.90;;;;;;5076474;28;20509;-75
2022/04/22 05:42:12;;;;;;;20.00;15.77;;;5.80;99.90;;;;;;5058402;28;20329;-76
2022/04/22 05:44:38;;;;;;;20.53;15.90;;;5.90;99.90;;;;;;5058283;28;20078;-76
2022/04/22 05:47:06;;;;;;;18.67;15.07;;;6.00;99.90;;;;;;5076158;28;20103;-76
2022/04/22 05:49:32;;;;;;;23.77;16.03;;;6.10;99.90;;;;;;5058200;28;20392;-76
2022/04/22 05:51:57;;;;;;;19.30;15.27;;;6.20;99.90;;;;;;5058052;28;20376;-75
2022/04/22 05:54:23;;;;;;;24.60;16.57;;;6.30;99.90;;;;;;5075935;28;20033;-75
2022/04/22 05:56:48;;;;;;;21.37;16.10;;;6.20;99.90;;;;;;5076166;28;20024;-75
2022/04/22 05:59:14;;;;;;;20.10;15.77;;;6.10;99.90;;;;;;5076066;28;20159;-76
2022/04/22 06:01:39;;;;;;;20.70;15.80;;;6.10;99.90;;;;;;5075947;28;20035;-76
2022/04/22 06:04:05;;;;;;;23.10;16.80;;;6.30;99.90;;;;;;5057957;28;20426;-76
2022/04/22 06:06:30;;;;;;;22.33;16.63;;;6.40;99.90;;;;;;5076277;28;20398;-76
2022/04/22 06:11:40;;;;;;;25.23;17.83;;;6.70;99.90;;;;;;5072997;28;20459;-81
2022/04/22 06:14:05;;;;;;;21.97;16.67;;;6.80;99.90;;;;;;5093891;28;20056;-80
2022/04/22 06:16:31;;;;;;;24.43;17.23;;;6.90;99.90;;;;;;5115710;28;20024;-79
2022/04/22 06:18:57;;;;;;;21.17;17.50;;;7.00;99.90;;;;;;5110773;28;20101;-79
2022/04/22 06:21:22;;;;;;;24.30;17.17;;;7.00;99.90;;;;;;5100923;28;20037;-79
2022/04/22 06:23:48;;;;;;;25.50;16.20;;;7.10;99.90;;;;;;5098269;28;20028;-79
2022/04/22 06:26:14;;;;;;;24.23;16.83;;;7.40;99.90;;;;;;5117398;28;20391;-79
2022/04/22 06:28:42;;;;;;;23.27;16.43;;;7.50;99.90;;;;;;5084139;28;20052;-79
2022/04/22 06:31:08;;;;;;;24.30;15.80;;;7.60;99.90;;;;;;5075802;28;20028;-79
2022/04/22 06:33:34;;;;;;;19.97;16.13;;;7.70;99.90;;;;;;5063098;28;20389;-79
2022/04/22 06:36:03;;;;;;;20.37;15.57;;;7.80;99.90;;;;;;5074030;28;20472;-80
2022/04/22 06:38:30;;;;;;;19.27;14.63;;;8.00;99.90;;;;;;5094507;28;20047;-79
2022/04/22 06:46:24;;;;;;;19.80;15.80;;;8.20;99.90;;;;;;5075297;28;20385;-77
2022/04/22 06:48:50;;;;;;;20.33;16.03;;;8.30;99.90;;;;;;5075237;28;20033;-77
2022/04/22 06:51:17;;;;;;;20.60;16.20;;;8.50;99.90;;;;;;5075290;28;20455;-76
2022/04/22 06:53:43;;;;;;;21.53;15.27;;;8.40;99.90;;;;;;5073734;28;20035;-76
2022/04/22 06:56:09;;;;;;;19.87;14.90;;;8.30;99.90;;;;;;5075634;28;20020;-76
2022/04/22 06:58:38;;;;;;;22.53;15.83;;;8.40;99.90;;;;;;5074958;28;20021;-76
2022/04/22 07:01:04;;;;;;;16.53;14.33;;;8.40;99.90;;;;;;5075080;28;20028;-76
2022/04/22 07:03:30;;;;;;;18.77;14.33;;;8.50;99.90;;;;;;5075075;28;20063;-76
2022/04/22 07:05:56;;;;;;;18.93;14.03;;;8.60;99.90;;;;;;5073355;28;20472;-76
2022/04/22 07:08:22;;;;;;;18.63;15.53;;;8.60;99.90;;;;;;5075000;28;20100;-76
2022/04/22 07:10:50;;;;;;;17.83;14.40;;;8.60;99.90;;;;;;5073357;28;20024;-76
2022/04/22 07:13:17;;;;;;;20.50;13.90;;;8.80;99.90;;;;;;5074491;28;20108;-76
2022/04/22 07:15:48;;;;;;;18.27;14.07;;;8.80;99.90;;;;;;5074572;28;20170;-76
2022/04/22 07:18:14;;;;;;;19.37;13.93;;;8.80;99.90;;;;;;5075265;28;20119;-76
2022/04/22 07:20:41;;;;;;;18.73;13.80;;;8.90;99.90;;;;;;5073094;28;20021;-76
2022/04/22 07:23:08;;;;;;;18.67;14.60;;;9.00;99.90;;;;;;5073443;28;20020;-76
2022/04/22 07:25:34;;;;;;;18.33;13.00;;;8.90;99.90;;;;;;5074513;28;20085;-76
2022/04/22 07:28:01;;;;;;;15.90;13.03;;;8.90;99.90;;;;;;5074819;28;20025;-76
2022/04/22 07:30:26;;;;;;;20.10;15.37;;;9.30;99.90;;;;;;5094184;28;20139;-76
2022/04/22 07:32:52;;;;;;;21.00;15.40;;;9.30;99.90;;;;;;5094674;28;20465;-76
2022/04/22 07:35:19;;;;;;;22.13;18.73;;;9.20;99.90;;;;;;5094624;28;20020;-76
2022/04/22 07:37:55;;;;;;;33.10;22.97;;;9.20;99.90;;;;;;5094397;28;20058;-77
2022/04/22 07:40:22;;;;;;;15.70;12.90;;;9.40;99.90;;;;;;5076212;28;20440;-76
2022/04/22 07:48:27;;;;;;;14.23;11.40;;;9.80;99.90;;;;;;5070638;28;20032;-76
2022/04/22 07:50:54;;;;;;;14.30;12.07;;;9.80;99.90;;;;;;5094222;28;20107;-76
2022/04/22 07:53:21;;;;;;;15.90;11.27;;;9.90;99.90;;;;;;5094376;28;20031;-76
2022/04/22 07:55:48;;;;;;;16.87;10.93;;;10.00;99.90;;;;;;5094663;28;20032;-76
2022/04/22 07:58:14;;;;;;;12.00;10.07;;;10.10;99.90;;;;;;5094332;28;20498;-76
2022/04/22 08:00:41;;;;;;;14.93;10.97;;;10.10;99.90;;;;;;5094047;28;20027;-76
2022/04/22 08:03:08;;;;;;;12.90;10.53;;;10.20;99.90;;;;;;5094145;28;20107;-76
2022/04/22 08:05:34;;;;;;;12.17;10.53;;;10.40;99.90;;;;;;5094117;28;20123;-76
2022/04/22 08:08:00;;;;;;;13.53;10.53;;;10.50;99.90;;;;;;5093807;28;20078;-76
2022/04/22 08:10:26;;;;;;;12.97;11.17;;;10.40;99.90;;;;;;5075692;28;20160;-76
2022/04/22 08:12:51;;;;;;;13.67;10.93;;;10.40;99.90;;;;;;5093729;28;20028;-76
2022/04/22 08:15:19;;;;;;;11.97;10.53;;;10.40;99.90;;;;;;5093846;28;20468;-76
2022/04/22 08:17:45;;;;;;;16.23;11.53;;;10.50;99.90;;;;;;5094196;28;20020;-76
2022/04/22 08:20:12;;;;;;;17.70;12.87;;;10.80;99.90;;;;;;5093916;28;20024;-76
2022/04/22 08:22:38;;;;;;;14.87;10.43;;;11.10;99.90;;;;;;5093863;28;20020;-76
2022/04/22 08:25:04;;;;;;;17.13;10.00;;;11.40;99.90;;;;;;5075464;28;20446;-76
2022/04/22 08:27:30;;;;;;;15.20;10.50;;;11.40;99.90;;;;;;5093595;28;20114;-76
2022/04/22 08:29:56;;;;;;;14.03;10.43;;;11.60;99.90;;;;;;5093480;28;20071;-76
2022/04/22 08:32:21;;;;;;;15.00;10.33;;;11.70;99.90;;;;;;5093452;28;20028;-76
2022/04/22 08:34:47;;;;;;;16.27;10.70;;;11.80;99.90;;;;;;5093188;28;20024;-76
2022/04/22 08:37:13;;;;;;;17.77;11.30;;;11.80;99.90;;;;;;5093420;28;20020;-76
2022/04/22 08:39:39;;;;;;;11.93;10.07;;;11.90;99.90;;;;;;5075343;28;20542;-76
2022/04/22 08:42:05;;;;;;;13.52;10.15;;;12.10;99.90;;;;;;5093347;28;20023;-76
2022/04/22 08:44:31;;;;;;;13.93;10.60;;;12.20;99.90;;;;;;5075302;28;20035;-76
2022/04/22 08:49:58;;;;;;;13.17;10.20;;;12.30;99.90;;;;;;5064445;28;20072;-76
2022/04/22 08:52:26;;;;;;;13.20;9.50;;;12.30;99.90;;;;;;5093723;28;20024;-76
2022/04/22 08:54:53;;;;;;;13.67;10.60;;;12.50;99.90;;;;;;5093554;28;20376;-76
2022/04/22 08:57:20;;;;;;;12.32;9.90;;;12.60;99.90;;;;;;5093167;28;20013;-76
2022/04/22 08:59:46;;;;;;;14.55;10.13;;;12.70;99.90;;;;;;5075057;28;20016;-76
2022/04/22 09:02:16;;;;;;;13.70;9.07;;;12.90;99.90;;;;;;5091283;28;20790;-81
2022/04/22 09:04:42;;;;;;;11.80;9.68;;;13.00;99.90;;;;;;5072545;28;20032;-81
2022/04/22 09:07:13;;;;;;;11.65;9.05;;;12.90;99.90;;;;;;5099255;28;20032;-81
2022/04/22 09:09:40;;;;;;;13.85;11.07;;;13.00;99.90;;;;;;5088247;28;20046;-81
2022/04/22 09:12:13;;;;;;;12.35;10.00;;;13.00;99.90;;;;;;5102824;28;20468;-81
2022/04/22 09:14:46;;;;;;;14.48;10.23;;;13.00;99.90;;;;;;5106759;28;20429;-81
2022/04/22 09:17:17;;;;;;;16.65;9.70;;;13.00;99.90;;;;;;5107181;28;20023;-81
2022/04/22 09:19:46;;;;;;;16.60;8.48;;;13.20;99.90;;;;;;5102801;28;20067;-81
2022/04/22 09:22:18;;;;;;;13.77;8.60;;;13.30;99.90;;;;;;5101822;28;20028;-81
2022/04/22 09:24:47;;;;;;;15.00;8.68;;;13.30;99.90;;;;;;5085643;28;20085;-81
2022/04/22 09:27:13;;;;;;;15.18;9.10;;;13.10;99.90;;;;;;5066302;28;20044;-81
2022/04/22 09:29:53;;;;;;;13.05;8.57;;;13.40;99.90;;;;;;5080458;28;20044;-81
2022/04/22 09:32:32;;;;;;;10.63;8.57;;;13.80;99.90;;;;;;5058945;28;20111;-81
2022/04/22 09:35:06;;;;;;;12.80;8.32;;;14.30;99.90;;;;;;5069591;28;20024;-82
2022/04/22 09:43:18;;;;;;;11.30;7.75;;;15.00;99.90;;;;;;5004579;28;20375;-82
2022/04/22 09:45:44;;;;;;;11.75;7.65;;;15.30;99.90;;;;;;5071938;28;20078;-82
2022/04/22 09:48:18;;;;;;;10.02;8.50;;;15.60;99.90;;;;;;5090638;28;20035;-82
2022/04/22 09:50:46;;;;;;;11.15;8.23;;;15.50;99.90;;;;;;5078891;28;20493;-82
2022/04/22 09:53:14;;;;;;;11.68;7.90;;;15.20;99.90;;;;;;5111267;28;20028;-81
2022/04/22 09:55:53;;;;;;;10.32;7.38;;;14.90;99.90;;;;;;5111910;28;20038;-81
2022/04/22 09:58:26;;;;;;;10.43;7.75;;;14.90;99.90;;;;;;5111409;28;20031;-81
2022/04/22 10:01:03;;;;;;;13.35;8.13;;;14.80;99.90;;;;;;5093107;28;20503;-81
2022/04/22 10:03:37;;;;;;;10.98;8.30;;;14.80;99.90;;;;;;5100655;28;20051;-81
2022/04/22 10:06:04;;;;;;;10.25;8.32;;;14.90;99.90;;;;;;5076327;28;20057;-81
2022/04/22 10:08:37;;;;;;;10.30;8.25;;;15.00;99.90;;;;;;5111973;28;20536;-81
2022/04/22 10:11:07;;;;;;;14.20;8.82;;;15.20;99.90;;;;;;5112380;28;20085;-81
2022/04/22 10:13:46;;;;;;;15.25;8.43;;;15.30;99.90;;;;;;5093598;28;20039;-82
2022/04/22 10:16:13;;;;;;;12.88;8.35;;;15.40;99.90;;;;;;5094061;28;20511;-81
2022/04/22 10:18:39;;;;;;;13.73;8.45;;;15.70;99.90;;;;;;5092966;28;20392;-81
2022/04/22 10:21:06;;;;;;;19.02;9.07;;;15.70;99.90;;;;;;5073528;28;20034;-81
2022/04/22 10:23:32;;;;;;;11.65;8.10;;;15.60;99.90;;;;;;5093012;28;20119;-81
2022/04/22 10:25:58;;;;;;;11.90;8.15;;;15.90;99.90;;;;;;5092723;28;20135;-82
2022/04/22 10:28:26;;;;;;;11.82;8.00;;;16.10;99.90;;;;;;5093149;28;20056;-81
2022/04/22 10:30:54;;;;;;;10.45;6.72;;;16.30;99.90;;;;;;5109222;28;20046;-81
2022/04/22 10:33:25;;;;;;;12.77;7.75;;;16.70;99.90;;;;;;5107573;28;20044;-82
2022/04/22 10:35:58;;;;;;;8.90;7.50;;;16.80;99.90;;;;;;5093462;28;20024;-82
2022/04/22 10:38:33;;;;;;;9.13;7.47;;;16.70;99.90;;;;;;5091562;28;20043;-82
2022/04/22 10:41:03;;;;;;;10.95;7.47;;;16.80;99.90;;;;;;5091417;28;20032;-78
2022/04/22 10:43:29;;;;;;;9.27;8.23;;;16.70;99.90;;;;;;5092335;28;20055;-76
2022/04/22 10:48:41;;;;;;;11.13;8.38;;;17.40;99.90;;;;;;5119143;28;20035;-72
2022/04/22 10:51:11;;;;;;;9.18;7.93;;;17.40;99.90;;;;;;5088839;28;20456;-70
2022/04/22 10:53:49;;;;;;;9.25;7.43;;;17.10;99.90;;;;;;5088384;28;20059;-69
2022/04/22 10:56:30;;;;;;;10.65;8.18;;;17.50;99.90;;;;;;5079504;28;20115;-69
2022/04/22 10:59:21;;;;;;;9.77;8.23;;;17.60;99.90;;;;;;5093524;28;20016;-69
2022/04/22 11:01:48;;;;;;;11.55;8.13;;;17.60;99.90;;;;;;5099656;28;20029;-69
2022/04/22 11:04:26;;;;;;;16.02;10.57;;;17.40;99.90;;;;;;5100752;28;20028;-70
2022/04/22 11:06:53;;;;;;;11.65;8.05;;;17.30;99.90;;;;;;5114638;28;20020;-69
2022/04/22 11:09:29;;;;;;;9.65;8.38;;;17.30;99.90;;;;;;5114356;28;20062;-69
2022/04/22 11:11:56;;;;;;;12.15;8.88;;;17.30;99.90;;;;;;5100228;28;20051;-70
2022/04/22 11:14:26;;;;;;;13.60;9.80;;;17.00;99.90;;;;;;5094194;28;20027;-70
2022/04/22 11:17:15;;;;;;;8.82;7.57;;;17.20;99.90;;;;;;5090355;28;20024;-70
2022/04/22 11:19:57;;;;;;;13.95;7.93;;;17.30;99.90;;;;;;5088801;28;20035;-70
2022/04/22 11:22:58;;;;;;;12.88;8.75;;;17.60;99.90;;;;;;5090665;28;20039;-70
2022/04/22 11:25:29;;;;;;;11.02;7.63;;;17.90;99.90;;;;;;5089427;28;20040;-70
2022/04/22 11:27:55;;;;;;;12.32;8.00;;;17.80;99.90;;;;;;5089473;28;20040;-69
2022/04/22 11:30:22;;;;;;;10.57;8.15;;;17.90;99.90;;;;;;5088697;28;20052;-70
2022/04/22 11:32:52;;;;;;;11.45;8.95;;;17.40;99.90;;;;;;5071421;28;20117;-69
2022/04/22 11:35:22;;;;;;;10.68;8.52;;;17.20;99.90;;;;;;5089522;28;20033;-70
2022/04/22 11:38:03;;;;;;;10.93;9.30;;;17.10;99.90;;;;;;5086880;28;20375;-69
2022/04/22 11:40:32;;;;;;;13.30;9.50;;;16.90;99.90;;;;;;5087797;28;20028;-70
2022/04/22 11:43:05;;;;;;;16.20;9.45;;;17.00;99.90;;;;;;5089146;28;20038;-70
2022/04/22 11:45:35;;;;;;;17.25;9.48;;;17.10;99.90;;;;;;5089014;28;20035;-70
2022/04/22 11:48:09;;;;;;;9.65;8.23;;;16.90;99.90;;;;;;5089154;28;20032;-70
2022/04/22 11:50:45;;;;;;;10.32;9.05;;;17.40;99.90;;;;;;5082754;28;20100;-72
2022/04/22 11:53:19;;;;;;;10.77;8.93;;;17.70;99.90;;;;;;5078614;28;20085;-72
2022/04/22 11:55:47;;;;;;;10.65;9.15;;;17.70;99.90;;;;;;5061392;28;20044;-72
2022/04/22 11:58:23;;;;;;;11.50;8.68;;;17.60;99.90;;;;;;5078478;28;20035;-71
2022/04/22 12:06:21;;;;;;;10.93;8.88;;;17.70;99.90;;;;;;5079952;28;20089;-71
2022/04/22 12:08:51;;;;;;;13.43;9.25;;;18.10;99.90;;;;;;5079176;28;20068;-72
2022/04/22 12:11:17;;;;;;;12.95;9.65;;;18.10;99.90;;;;;;5079224;28;20674;-71
2022/04/22 12:13:42;;;;;;;9.20;8.20;;;18.10;99.90;;;;;;5080485;28;20044;-72
2022/04/22 12:16:08;;;;;;;10.55;8.65;;;18.00;99.60;;;;;;5080576;28;20131;-72
2022/04/22 12:18:35;;;;;;;14.43;8.57;;;18.00;99.70;;;;;;5080637;28;20020;-72
2022/04/22 12:21:02;;;;;;;10.18;8.95;;;17.90;99.10;;;;;;5079985;28;20036;-72
2022/04/22 12:23:35;;;;;;;12.85;9.57;;;18.00;99.40;;;;;;5080772;28;20106;-72
2022/04/22 12:26:01;;;;;;;11.75;8.93;;;17.80;98.60;;;;;;5081215;28;20148;-72
2022/04/22 12:28:27;;;;;;;12.63;9.40;;;17.40;98.90;;;;;;5080192;28;20056;-72
2022/04/22 12:30:53;;;;;;;10.93;9.65;;;17.20;99.70;;;;;;5078990;28;20032;-72
2022/04/22 12:33:23;;;;;;;11.75;9.07;;;17.30;99.90;;;;;;5090137;28;20031;-71
2022/04/22 12:36:05;;;;;;;12.07;8.30;;;17.80;99.90;;;;;;5092002;28;20118;-71
2022/04/22 12:38:32;;;;;;;9.57;8.20;;;18.20;98.80;;;;;;5091851;28;20371;-71
2022/04/22 12:40:57;;;;;;;10.77;8.48;;;18.60;97.00;;;;;;5091636;28;20457;-70
2022/04/22 12:43:33;;;;;;;13.00;7.85;;;18.40;97.50;;;;;;5082406;28;20040;-71
2022/04/22 12:52:16;;;;;;;16.00;9.30;;;18.60;97.20;;;;;;5079797;28;20085;-71
2022/04/22 12:54:45;;;;;;;11.52;8.93;;;19.00;97.70;;;;;;5088421;28;20020;-71
2022/04/22 12:57:25;;;;;;;12.98;7.85;;;19.20;97.40;;;;;;5090759;28;20020;-71
2022/04/22 12:59:55;;;;;;;12.63;7.93;;;19.20;95.30;;;;;;5089189;28;20020;-70
2022/04/22 13:02:34;;;;;;;10.52;8.82;;;19.20;95.10;;;;;;5087335;28;20047;-68
2022/04/22 13:05:02;;;;;;;10.68;9.18;;;19.00;95.70;;;;;;5080254;28;20104;-69
2022/04/22 13:07:47;;;;;;;12.60;8.30;;;18.90;96.30;;;;;;5086356;28;20039;-70
2022/04/22 13:10:14;;;;;;;11.07;8.23;;;19.10;95.60;;;;;;5087191;28;20024;-71
2022/04/22 13:12:41;;;;;;;11.13;8.85;;;19.30;95.60;;;;;;5087878;28;20032;-70
2022/04/22 13:15:08;;;;;;;9.55;7.72;;;19.40;95.10;;;;;;5087809;28;20055;-70
2022/04/22 13:17:41;;;;;;;12.30;8.38;;;19.30;94.80;;;;;;5088536;28;20104;-70
2022/04/22 13:20:08;;;;;;;10.60;8.32;;;19.40;94.50;;;;;;5088101;28;20024;-70
2022/04/22 13:22:35;;;;;;;12.48;8.32;;;19.40;93.80;;;;;;5091913;28;20031;-70
2022/04/22 13:25:00;;;;;;;8.43;7.63;;;19.00;94.90;;;;;;5071868;28;20028;-71
2022/04/22 13:27:26;;;;;;;14.88;8.00;;;18.70;94.80;;;;;;5092184;28;20028;-71
2022/04/22 13:29:51;;;;;;;10.70;8.77;;;18.80;95.30;;;;;;5091852;28;20052;-71
2022/04/22 13:32:17;;;;;;;13.82;8.20;;;18.90;95.60;;;;;;5092679;28;20138;-71
2022/04/22 13:34:42;;;;;;;13.07;9.00;;;18.80;95.10;;;;;;5091791;28;20055;-70
2022/04/22 13:37:09;;;;;;;11.00;8.55;;;18.60;95.00;;;;;;5073548;28;20032;-71
2022/04/22 13:39:35;;;;;;;12.25;9.25;;;18.30;95.80;;;;;;5091484;28;20020;-71
2022/04/22 13:42:01;;;;;;;10.95;9.85;;;18.40;95.00;;;;;;5091194;28;20051;-70
2022/04/22 13:52:39;;;;;;;11.40;8.90;;;18.40;96.80;;;;;;5091232;28;20431;-70